Time;durP1;ratioP1;P1;durP2;ratioP2;P2;SDS_P1;SDS_P2;PMS_P1;PMS_P2;Temp;Humidity;BMP_temperature;BMP_pressure;BME280_temperature;BME280_humidity;BME280_pressure;Samples;Min_cycle;Max_cycle;Signal;HPM_P1;HPM_P2
2023/01/18 00:00:36;;;;;;;;;;;;;;;;;;5034392;28;7149;-69
2023/01/18 00:03:03;;;;;;;;;;;;;;;;;;5034419;28;7247;-69
2023/01/18 00:05:47;;;;;;;;;;;;;;;;;;5034426;28;7370;-69
2023/01/18 00:08:17;;;;;;;;;;;;;;;;;;5035083;28;7456;-69
2023/01/18 00:14:34;;;;;;;;;;;;;;;;;;5040507;28;7513;-69
2023/01/18 00:16:59;;;;;;;;;;;;;;;;;;5037711;28;7455;-69
2023/01/18 00:22:28;;;;;;;;;;;;;;;;;;5037875;28;6966;-69
2023/01/18 00:25:20;;;;;;;;;;;;;;;;;;5038127;28;7134;-69
2023/01/18 00:27:47;;;;;;;;;;;;;;;;;;5038014;28;7136;-68
2023/01/18 00:30:16;;;;;;;;;;;;;;;;;;5037988;28;7304;-68
2023/01/18 00:32:46;;;;;;;;;;;;;;;;;;5037776;28;7401;-68
2023/01/18 00:35:11;;;;;;;;;;;;;;;;;;5037852;28;7165;-68
2023/01/18 00:37:37;;;;;;;;;;;;;;;;;;5037573;28;7332;-67
2023/01/18 00:40:10;;;;;;;;;;;;;;;;;;5037716;28;7250;-70
2023/01/18 00:45:32;;;;;;;;;;;;;;;;;;5038163;28;6805;-69
2023/01/18 00:47:57;;;;;;;;;;;;;;;;;;5037638;28;7206;-69
2023/01/18 00:50:23;;;;;;;;;;;;;;;;;;5037255;28;7269;-69
2023/01/18 00:52:49;;;;;;;;;;;;;;;;;;5037475;28;7137;-69
2023/01/18 00:55:16;;;;;;;;;;;;;;;;;;5037534;28;7087;-69
2023/01/18 01:00:44;;;;;;;;;;;;;;;;;;5282788;23;6738;-70
2023/01/18 01:03:12;;;;;;;;;;;;;;;;;;5041184;28;7102;-69
2023/01/18 01:08:22;;;;;;;;;;;;;;;;;;5056233;28;6804;-69
2023/01/18 01:10:49;;;;;;;;;;;;;;;;;;5056884;28;6985;-69
2023/01/18 08:27:01;;;;;;;;;;;;;;;;;;5052994;28;7262;-65
2023/01/18 08:29:27;;;;;;;;;;;;;;;;;;5032217;28;7181;-65
2023/01/18 08:31:53;;;;;;;;;;;;;;;;;;5032036;28;7540;-65
2023/01/18 08:34:18;;;;;;;;;;;;;;;;;;5047571;28;8927;-66
2023/01/18 08:36:44;;;;;;;;;;;;;;;;;;5032163;28;7091;-66
2023/01/18 08:39:11;;;;;;;;;;;;;;;;;;5031971;28;7123;-66
2023/01/18 08:41:37;;;;;;;;;;;;;;;;;;5031556;28;7444;-66
2023/01/18 08:44:02;;;;;;;;;;;;;;;;;;5031585;28;7053;-66
2023/01/18 08:46:42;;;;;;;;;;;;;;;;;;5032323;28;7198;-66
2023/01/18 08:49:08;;;;;;;;;;;;;;;;;;5031786;28;7449;-66
2023/01/18 08:51:34;;;;;;;;;;;;;;;;;;5031854;28;7378;-66
2023/01/18 08:57:02;;;;;;;;;;;;;;;;;;5031534;28;6685;-66
2023/01/18 08:59:45;;;;;;;;;;;;;;;;;;5034433;28;7014;-66
2023/01/18 09:02:11;;;;;;;;;;;;;;;;;;5036881;28;6934;-66
2023/01/18 09:04:47;;;;;;;;;;;;;;;;;;5051335;28;7013;-66
2023/01/18 09:07:13;;;;;;;;;;;;;;;;;;5051558;28;6936;-66
2023/01/18 09:12:43;;;;;;;;;;;;;;;;;;5050962;28;6928;-66
2023/01/18 09:15:09;;;;;;;;;;;;;;;;;;5051331;28;7108;-66
2023/01/18 09:17:34;;;;;;;;;;;;;;;;;;5050741;28;7265;-66
2023/01/18 09:20:22;;;;;;;;;;;;;;;;;;5051241;28;7088;-66
2023/01/18 09:22:48;;;;;;;;;;;;;;;;;;5050974;28;6920;-66
2023/01/18 09:25:16;;;;;;;;;;;;;;;;;;5051648;28;7084;-66
2023/01/18 09:27:42;;;;;;;;;;;;;;;;;;5071019;28;7055;-66
2023/01/18 09:36:13;;;;;;;;;;;;;;;;;;5049753;28;6684;-66
2023/01/18 09:41:43;;;;;;;;;;;;;;;;;;5037070;28;6940;-66
2023/01/18 09:47:41;;;;;;;;;;;;;;;;;;5037137;28;6972;-66
2023/01/18 09:50:09;;;;;;;;;;;;;;;;;;5037507;28;7103;-66
2023/01/18 09:52:38;;;;;;;;;;;;;;;;;;5037344;28;7206;-66
2023/01/18 09:58:06;;;;;;;;;;;;;;;;;;5036902;28;6709;-66
2023/01/18 10:00:36;;;;;;;;;;;;;;;;;;5037360;28;7148;-66
2023/01/18 10:09:15;;;;;;;;;;;;;;;;;;5036823;28;6964;-66
2023/01/18 10:11:43;;;;;;;;;;;;;;;;;;5036341;28;7944;-66
2023/01/18 10:17:21;;;;;;;;;;;;;;;;;;5036874;28;6781;-66
2023/01/18 10:19:47;;;;;;;;;;;;;;;;;;5037261;28;7173;-66
2023/01/18 10:22:28;;;;;;;;;;;;;;;;;;5036254;28;7055;-66
2023/01/18 10:25:08;;;;;;;;;;;;;;;;;;5036522;28;7346;-66
2023/01/18 10:27:52;;;;;;;;;;;;;;;;;;5036559;28;7165;-66
2023/01/18 10:30:36;;;;;;;;;;;;;;;;;;5033571;28;7288;-66
2023/01/18 10:33:14;;;;;;;;;;;;;;;;;;5016592;28;7401;-66
2023/01/18 10:35:44;;;;;;;;;;;;;;;;;;5016433;28;7967;-66
2023/01/18 10:38:12;;;;;;;;;;;;;;;;;;5016534;28;7362;-66
2023/01/18 10:40:39;;;;;;;;;;;;;;;;;;5016455;28;6919;-66
2023/01/18 10:43:09;;;;;;;;;;;;;;;;;;5016333;28;7117;-66
2023/01/18 10:48:38;;;;;;;;;;;;;;;;;;5015157;28;7425;-66
2023/01/18 10:57:19;;;;;;;;;;;;;;;;;;5016321;28;6920;-66
2023/01/18 10:59:44;;;;;;;;;;;;;;;;;;5016176;28;7436;-66
2023/01/18 11:02:22;;;;;;;;;;;;;;;;;;5016306;28;6987;-66
2023/01/18 11:07:35;;;;;;;;;;;;;;;;;;5016294;28;6825;-66
2023/01/18 11:10:08;;;;;;;;;;;;;;;;;;5016078;28;8425;-66
2023/01/18 11:15:36;;;;;;;;;;;;;;;;;;5015645;28;6685;-66
2023/01/18 11:24:13;;;;;;;;;;;;;;;;;;5034896;28;6968;-66
2023/01/18 11:26:51;;;;;;;;;;;;;;;;;;5031251;28;6946;-66
2023/01/18 11:29:20;;;;;;;;;;;;;;;;;;5035209;28;7243;-66
2023/01/18 11:31:48;;;;;;;;;;;;;;;;;;5035284;28;6995;-66
2023/01/18 11:34:30;;;;;;;;;;;;;;;;;;5035335;28;7098;-66
2023/01/18 11:36:56;;;;;;;;;;;;;;;;;;5035267;28;7334;-66
2023/01/18 11:42:29;;;;;;;;;;;;;;;;;;5034917;28;7046;-66
2023/01/18 11:44:57;;;;;;;;;;;;;;;;;;5036275;28;7139;-67
2023/01/18 11:47:49;;;;;;;;;;;;;;;;;;5034872;28;7013;-66
2023/01/18 11:50:27;;;;;;;;;;;;;;;;;;5031312;28;7387;-67
2023/01/18 11:52:56;;;;;;;;;;;;;;;;;;5014876;28;7217;-67
2023/01/18 11:55:22;;;;;;;;;;;;;;;;;;5015091;28;7131;-66
2023/01/18 12:04:24;;;;;;;;;;;;;;;;;;5019936;28;6929;-66
2023/01/18 12:07:16;;;;;;;;;;;;;;;;;;5019011;28;6971;-66
2023/01/18 12:10:09;;;;;;;;;;;;;;;;;;5005604;28;7186;-66
2023/01/18 12:12:34;;;;;;;;;;;;;;;;;;5016666;28;7197;-67
2023/01/18 12:21:10;;;;;;;;;;;;;;;;;;5015176;28;6985;-67
2023/01/18 12:30:10;;;;;;;;;;;;;;;;;;5014857;28;6904;-67
2023/01/18 12:38:31;;;;;;;;;;;;;;;;;;5014977;28;6773;-67
2023/01/18 12:41:05;;;;;;;;;;;;;;;;;;5014591;28;7324;-67
2023/01/18 12:49:45;;;;;;;;;;;;;;;;;;5014524;28;7399;-67
2023/01/18 12:52:13;;;;;;;;;;;;;;;;;;5014994;28;7168;-67
2023/01/18 12:55:04;;;;;;;;;;;;;;;;;;5014563;28;7116;-67
2023/01/18 12:57:29;;;;;;;;;;;;;;;;;;5015558;28;7107;-67
2023/01/18 13:00:05;;;;;;;;;;;;;;;;;;5014490;28;7172;-67
2023/01/18 13:02:44;;;;;;;;;;;;;;;;;;5015236;28;7176;-67
2023/01/18 13:05:23;;;;;;;;;;;;;;;;;;5014670;28;7137;-67
2023/01/18 13:08:07;;;;;;;;;;;;;;;;;;5014511;28;7210;-67
2023/01/18 13:10:35;;;;;;;;;;;;;;;;;;5014622;28;7287;-68
2023/01/18 13:13:03;;;;;;;;;;;;;;;;;;5016677;28;7254;-68
2023/01/18 13:15:42;;;;;;;;;;;;;;;;;;5024188;28;7197;-67
2023/01/18 13:18:22;;;;;;;;;;;;;;;;;;5027250;28;7188;-67
2023/01/18 13:24:00;;;;;;;;;;;;;;;;;;5027301;28;6991;-67
2023/01/18 13:29:55;;;;;;;;;;;;;;;;;;5031308;28;6713;-68
2023/01/18 13:32:26;;;;;;;;;;;;;;;;;;5017558;28;6932;-68
2023/01/18 13:35:17;;;;;;;;;;;;;;;;;;5000009;28;8808;-68
2023/01/18 13:37:44;;;;;;;;;;;;;;;;;;5025498;28;6900;-68
2023/01/18 13:43:36;;;;;;;;;;;;;;;;;;4995950;28;6777;-67
2023/01/18 13:46:05;;;;;;;;;;;;;;;;;;5035912;28;7250;-68
2023/01/18 13:49:19;;;;;;;;;;;;;;;;;;5037414;28;6882;-67
2023/01/18 13:51:46;;;;;;;;;;;;;;;;;;4995829;28;6967;-67
2023/01/18 13:54:16;;;;;;;;;;;;;;;;;;4995696;28;7072;-67
2023/01/18 13:57:10;;;;;;;;;;;;;;;;;;4996250;28;7050;-68
2023/01/18 13:59:54;;;;;;;;;;;;;;;;;;4995080;28;6876;-67
2023/01/18 14:02:32;;;;;;;;;;;;;;;;;;4984849;28;7134;-68
2023/01/18 14:11:36;;;;;;;;;;;;;;;;;;4934850;29;7007;-67
2023/01/18 14:14:04;;;;;;;;;;;;;;;;;;4934348;29;7065;-67
2023/01/18 14:16:33;;;;;;;;;;;;;;;;;;4934699;29;7376;-67
2023/01/18 14:19:12;;;;;;;;;;;;;;;;;;4920196;29;7330;-67
2023/01/18 14:21:46;;;;;;;;;;;;;;;;;;4928940;28;7027;-67
2023/01/18 14:24:20;;;;;;;;;;;;;;;;;;4947495;28;6827;-67
2023/01/18 14:26:47;;;;;;;;;;;;;;;;;;4955751;28;7428;-69
2023/01/18 14:32:24;;;;;;;;;;;;;;;;;;4956439;28;6682;-68
2023/01/18 14:34:58;;;;;;;;;;;;;;;;;;4956459;28;7323;-67
2023/01/18 14:37:40;;;;;;;;;;;;;;;;;;4956101;28;7175;-67
2023/01/18 14:40:06;;;;;;;;;;;;;;;;;;4956081;28;6985;-68
2023/01/18 14:42:34;;;;;;;;;;;;;;;;;;4995248;28;7123;-67
2023/01/18 14:45:24;;;;;;;;;;;;;;;;;;5016260;28;7443;-67
2023/01/18 14:47:50;;;;;;;;;;;;;;;;;;5032957;28;7253;-68
2023/01/18 14:50:20;;;;;;;;;;;;;;;;;;5036103;28;7401;-68
2023/01/18 14:56:04;;;;;;;;;;;;;;;;;;5035718;28;6713;-68
2023/01/18 14:58:39;;;;;;;;;;;;;;;;;;5035613;28;6939;-68
2023/01/18 15:01:07;;;;;;;;;;;;;;;;;;5035997;28;7308;-68
2023/01/18 15:06:40;;;;;;;;;;;;;;;;;;5035606;28;6669;-68
2023/01/18 15:09:25;;;;;;;;;;;;;;;;;;5035763;28;7057;-68
2023/01/18 15:11:54;;;;;;;;;;;;;;;;;;5035705;28;7085;-67
2023/01/18 15:17:36;;;;;;;;;;;;;;;;;;5035300;28;7500;-67
2023/01/18 15:20:06;;;;;;;;;;;;;;;;;;5035590;28;7400;-67
2023/01/18 15:23:04;;;;;;;;;;;;;;;;;;5035475;28;7435;-68
2023/01/18 15:25:31;;;;;;;;;;;;;;;;;;5035580;28;7386;-73
2023/01/18 15:27:58;;;;;;;;;;;;;;;;;;5032302;28;7525;-73
2023/01/18 15:30:33;;;;;;;;;;;;;;;;;;5035493;28;7127;-73
2023/01/18 15:36:02;;;;;;;;;;;;;;;;;;5034570;28;7043;-73
2023/01/18 15:38:57;;;;;;;;;;;;;;;;;;5030803;28;7151;-73
2023/01/18 15:41:24;;;;;;;;;;;;;;;;;;5015881;28;7064;-73
2023/01/18 15:43:50;;;;;;;;;;;;;;;;;;5015291;28;7193;-73
2023/01/18 15:46:17;;;;;;;;;;;;;;;;;;5034786;28;6960;-73
2023/01/18 15:48:51;;;;;;;;;;;;;;;;;;5035036;28;7140;-73
2023/01/18 15:51:56;;;;;;;;;;;;;;;;;;5034958;28;7649;-73
2023/01/18 16:00:36;;;;;;;;;;;;;;;;;;5034375;28;7421;-73
2023/01/18 16:03:03;;;;;;;;;;;;;;;;;;5033169;28;7190;-73
2023/01/18 16:05:31;;;;;;;;;;;;;;;;;;5034726;28;7217;-73
2023/01/18 16:10:59;;;;;;;;;;;;;;;;;;5034471;28;6689;-74
2023/01/18 16:13:25;;;;;;;;;;;;;;;;;;5035047;28;7437;-74
2023/01/18 16:19:00;;;;;;;;;;;;;;;;;;5034386;28;7517;-74
2023/01/18 16:21:39;;;;;;;;;;;;;;;;;;5034468;28;7057;-74
2023/01/18 16:24:19;;;;;;;;;;;;;;;;;;5031157;28;7010;-74
2023/01/18 16:26:46;;;;;;;;;;;;;;;;;;5034006;28;6953;-74
2023/01/18 16:32:16;;;;;;;;;;;;;;;;;;5034312;28;6982;-74
2023/01/18 16:37:44;;;;;;;;;;;;;;;;;;5034246;28;6734;-74
2023/01/18 16:40:15;;;;;;;;;;;;;;;;;;5034042;28;6994;-74
2023/01/18 16:45:45;;;;;;;;;;;;;;;;;;5034260;28;6689;-74
2023/01/18 16:48:15;;;;;;;;;;;;;;;;;;5029105;28;6932;-74
2023/01/18 16:50:44;;;;;;;;;;;;;;;;;;5019179;28;7398;-74
2023/01/18 16:53:10;;;;;;;;;;;;;;;;;;5018474;28;6832;-74
2023/01/18 16:55:36;;;;;;;;;;;;;;;;;;5018439;28;7174;-74
2023/01/18 16:58:03;;;;;;;;;;;;;;;;;;5018297;28;6985;-74
2023/01/18 17:03:33;;;;;;;;;;;;;;;;;;5018429;28;6681;-74
2023/01/18 17:09:01;;;;;;;;;;;;;;;;;;5017951;28;6923;-74
2023/01/18 17:11:40;;;;;;;;;;;;;;;;;;5018162;28;7267;-73
2023/01/18 17:14:05;;;;;;;;;;;;;;;;;;5018219;28;7646;-73
2023/01/18 17:16:32;;;;;;;;;;;;;;;;;;5017835;28;6919;-73
2023/01/18 17:18:58;;;;;;;;;;;;;;;;;;5017826;28;6934;-73
2023/01/18 17:21:23;;;;;;;;;;;;;;;;;;5018098;28;7123;-73
2023/01/18 17:23:55;;;;;;;;;;;;;;;;;;5018592;28;7184;-73
2023/01/18 17:29:23;;;;;;;;;;;;;;;;;;5020034;28;6832;-73
2023/01/18 17:31:55;;;;;;;;;;;;;;;;;;5037587;28;7104;-73
2023/01/18 17:34:22;;;;;;;;;;;;;;;;;;5037687;28;7226;-73
2023/01/18 17:37:02;;;;;;;;;;;;;;;;;;5037540;28;7406;-73
2023/01/18 17:39:27;;;;;;;;;;;;;;;;;;5037967;28;7202;-73
2023/01/18 17:45:16;;;;;;;;;;;;;;;;;;5037346;28;6704;-73
2023/01/18 17:47:42;;;;;;;;;;;;;;;;;;5037387;28;7006;-73
2023/01/18 17:50:10;;;;;;;;;;;;;;;;;;5037356;28;7239;-73
2023/01/18 17:52:37;;;;;;;;;;;;;;;;;;5037138;28;6973;-73
2023/01/18 18:01:21;;;;;;;;;;;;;;;;;;5036878;28;6673;-73
2023/01/18 18:03:49;;;;;;;;;;;;;;;;;;5037202;28;7159;-73
2023/01/18 18:06:33;;;;;;;;;;;;;;;;;;5036782;28;7099;-73
2023/01/18 18:09:01;;;;;;;;;;;;;;;;;;5037831;28;7365;-73
2023/01/18 18:11:28;;;;;;;;;;;;;;;;;;5036904;28;7614;-73
2023/01/18 18:13:55;;;;;;;;;;;;;;;;;;5037511;28;7221;-73
2023/01/18 18:16:21;;;;;;;;;;;;;;;;;;5036689;28;7120;-73
2023/01/18 18:19:24;;;;;;;;;;;;;;;;;;5036859;28;7152;-73
2023/01/18 18:21:49;;;;;;;;;;;;;;;;;;5036684;28;7041;-74
2023/01/18 18:24:15;;;;;;;;;;;;;;;;;;5035320;28;7161;-74
2023/01/18 18:29:54;;;;;;;;;;;;;;;;;;5036466;28;6981;-74
2023/01/18 18:32:20;;;;;;;;;;;;;;;;;;5036508;28;7168;-74
2023/01/18 18:34:45;;;;;;;;;;;;;;;;;;5036222;28;7015;-74
2023/01/18 18:37:24;;;;;;;;;;;;;;;;;;5036518;28;7063;-74
2023/01/18 18:39:49;;;;;;;;;;;;;;;;;;5036324;28;7157;-74
2023/01/18 18:42:15;;;;;;;;;;;;;;;;;;5036116;28;7251;-74
2023/01/18 18:44:40;;;;;;;;;;;;;;;;;;5036326;28;7419;-74
2023/01/18 18:47:13;;;;;;;;;;;;;;;;;;5036198;28;6953;-74
2023/01/18 18:49:38;;;;;;;;;;;;;;;;;;5036819;28;7195;-74
2023/01/18 18:52:04;;;;;;;;;;;;;;;;;;5036089;28;7225;-74
2023/01/18 18:57:32;;;;;;;;;;;;;;;;;;5035869;28;6972;-74
2023/01/18 19:03:02;;;;;;;;;;;;;;;;;;5035739;28;6677;-74
2023/01/18 19:05:30;;;;;;;;;;;;;;;;;;5035751;28;7145;-74
2023/01/18 19:07:56;;;;;;;;;;;;;;;;;;5035911;28;6946;-74
2023/01/18 19:10:32;;;;;;;;;;;;;;;;;;5035059;28;6925;-74
2023/01/18 19:12:58;;;;;;;;;;;;;;;;;;5035685;28;7173;-74
2023/01/18 19:15:23;;;;;;;;;;;;;;;;;;5035636;28;7004;-74
2023/01/18 19:17:50;;;;;;;;;;;;;;;;;;5035591;28;7166;-74
2023/01/18 19:20:28;;;;;;;;;;;;;;;;;;5036168;28;7099;-74
2023/01/18 19:22:53;;;;;;;;;;;;;;;;;;5035570;28;7138;-74
2023/01/18 19:25:19;;;;;;;;;;;;;;;;;;5035788;28;7064;-74
2023/01/18 19:27:44;;;;;;;;;;;;;;;;;;5030421;28;7055;-74
2023/01/18 19:33:14;;;;;;;;;;;;;;;;;;5035249;28;6976;-74
2023/01/18 19:35:41;;;;;;;;;;;;;;;;;;5035947;28;7075;-74
2023/01/18 19:41:10;;;;;;;;;;;;;;;;;;5033691;28;7047;-74
2023/01/18 19:43:41;;;;;;;;;;;;;;;;;;5015236;28;7398;-74
2023/01/18 19:46:08;;;;;;;;;;;;;;;;;;5016582;28;7018;-74
2023/01/18 19:49:04;;;;;;;;;;;;;;;;;;5019677;28;7203;-74
2023/01/18 19:51:30;;;;;;;;;;;;;;;;;;5015115;28;7432;-74
2023/01/18 20:03:17;;;;;;;;;;;;;;;;;;5016728;28;6993;-68
2023/01/18 20:05:43;;;;;;;;;;;;;;;;;;5034822;28;7189;-68
2023/01/18 20:11:20;;;;;;;;;;;;;;;;;;5034324;28;6940;-68
2023/01/18 20:13:47;;;;;;;;;;;;;;;;;;5028248;28;7064;-68
2023/01/18 20:16:24;;;;;;;;;;;;;;;;;;5029989;28;7428;-68
2023/01/18 20:18:51;;;;;;;;;;;;;;;;;;5019600;28;7388;-68
2023/01/18 20:21:17;;;;;;;;;;;;;;;;;;5034450;28;7192;-68
2023/01/18 20:23:44;;;;;;;;;;;;;;;;;;5020221;28;7046;-68
2023/01/18 20:26:11;;;;;;;;;;;;;;;;;;5026693;28;6821;-68
2023/01/18 20:28:37;;;;;;;;;;;;;;;;;;5032792;28;7118;-68
2023/01/18 20:31:21;;;;;;;;;;;;;;;;;;5034575;28;7059;-68
2023/01/18 20:33:47;;;;;;;;;;;;;;;;;;5034380;28;6864;-68
2023/01/18 20:36:18;;;;;;;;;;;;;;;;;;5034530;28;6994;-68
2023/01/18 20:38:43;;;;;;;;;;;;;;;;;;5034753;28;6818;-68
2023/01/18 20:41:28;;;;;;;;;;;;;;;;;;5034987;28;7106;-68
2023/01/18 20:43:53;;;;;;;;;;;;;;;;;;5034643;28;7831;-68
2023/01/18 20:46:49;;;;;;;;;;;;;;;;;;5034602;28;6988;-68
2023/01/18 20:49:15;;;;;;;;;;;;;;;;;;5034572;28;7121;-68
2023/01/18 20:51:58;;;;;;;;;;;;;;;;;;5034377;28;7449;-68
2023/01/18 20:54:24;;;;;;;;;;;;;;;;;;5034682;28;7035;-68
2023/01/18 20:56:50;;;;;;;;;;;;;;;;;;5034109;28;7151;-68
2023/01/18 20:59:16;;;;;;;;;;;;;;;;;;5034403;28;7454;-68
2023/01/18 21:01:42;;;;;;;;;;;;;;;;;;5034050;28;6983;-68
2023/01/18 21:04:08;;;;;;;;;;;;;;;;;;5034297;28;7189;-68
2023/01/18 21:06:33;;;;;;;;;;;;;;;;;;5034517;28;7135;-68
2023/01/18 21:09:00;;;;;;;;;;;;;;;;;;5034023;28;7146;-68
2023/01/18 21:17:25;;;;;;;;;;;;;;;;;;5034233;28;6961;-68
2023/01/18 21:20:13;;;;;;;;;;;;;;;;;;5023196;28;6936;-69
2023/01/18 21:22:38;;;;;;;;;;;;;;;;;;5014246;28;7114;-69
2023/01/18 21:28:25;;;;;;;;;;;;;;;;;;5013985;28;6924;-69
2023/01/18 21:30:52;;;;;;;;;;;;;;;;;;5014236;28;7374;-69
2023/01/18 21:33:21;;;;;;;;;;;;;;;;;;5018536;28;6958;-69
2023/01/18 21:35:47;;;;;;;;;;;;;;;;;;5037356;28;7207;-69
2023/01/18 21:38:18;;;;;;;;;;;;;;;;;;5037509;28;7121;-69
2023/01/18 21:40:44;;;;;;;;;;;;;;;;;;5037882;28;6920;-68
2023/01/18 21:46:02;;;;;;;;;;;;;;;;;;5037697;28;6796;-69
2023/01/18 21:48:30;;;;;;;;;;;;;;;;;;5037329;28;7623;-69
2023/01/18 21:56:32;;;;;;;;;;;;;;;;;;5037097;28;6796;-66
2023/01/18 21:58:59;;;;;;;;;;;;;;;;;;5037253;28;6912;-68
2023/01/18 22:01:52;;;;;;;;;;;;;;;;;;5037115;28;7083;-68
2023/01/18 22:07:12;;;;;;;;;;;;;;;;;;5037688;28;6885;-68
2023/01/18 22:09:38;;;;;;;;;;;;;;;;;;5037081;28;7151;-68
2023/01/18 22:12:04;;;;;;;;;;;;;;;;;;5036905;28;7018;-68
2023/01/18 22:14:30;;;;;;;;;;;;;;;;;;5036841;28;7673;-68
2023/01/18 22:16:56;;;;;;;;;;;;;;;;;;5036839;28;6992;-68
2023/01/18 22:19:21;;;;;;;;;;;;;;;;;;5036906;28;7388;-68
2023/01/18 22:24:50;;;;;;;;;;;;;;;;;;5036660;28;6688;-68
2023/01/18 22:30:19;;;;;;;;;;;;;;;;;;5036302;28;6720;-68
2023/01/18 22:35:38;;;;;;;;;;;;;;;;;;5037123;28;6959;-68
2023/01/18 22:38:04;;;;;;;;;;;;;;;;;;5037392;28;7111;-68
2023/01/18 22:43:34;;;;;;;;;;;;;;;;;;5036101;28;7037;-68
2023/01/18 22:45:59;;;;;;;;;;;;;;;;;;5036016;28;7167;-68
2023/01/18 22:48:52;;;;;;;;;;;;;;;;;;5036334;28;7123;-68
2023/01/18 22:51:22;;;;;;;;;;;;;;;;;;5035962;28;7411;-68
2023/01/18 22:53:49;;;;;;;;;;;;;;;;;;5036113;28;7185;-68
2023/01/18 22:59:17;;;;;;;;;;;;;;;;;;5035919;28;6693;-68
2023/01/18 23:01:58;;;;;;;;;;;;;;;;;;5035984;28;7478;-68
2023/01/18 23:04:24;;;;;;;;;;;;;;;;;;5035933;28;7478;-68
2023/01/18 23:06:53;;;;;;;;;;;;;;;;;;5035961;28;7346;-68
2023/01/18 23:12:21;;;;;;;;;;;;;;;;;;5035577;28;6685;-68
2023/01/18 23:17:37;;;;;;;;;;;;;;;;;;5035519;28;6800;-68
2023/01/18 23:20:06;;;;;;;;;;;;;;;;;;5035719;28;7317;-68
2023/01/18 23:22:31;;;;;;;;;;;;;;;;;;5035581;28;7047;-68
2023/01/18 23:24:57;;;;;;;;;;;;;;;;;;5036697;28;7013;-68
2023/01/18 23:27:43;;;;;;;;;;;;;;;;;;5034358;28;7119;-68
2023/01/18 23:30:09;;;;;;;;;;;;;;;;;;5035511;28;7187;-68
2023/01/18 23:32:36;;;;;;;;;;;;;;;;;;5034702;28;7184;-68
2023/01/18 23:38:09;;;;;;;;;;;;;;;;;;5021602;28;6741;-68
2023/01/18 23:54:26;;;;;;;;;;;;;;;;;;5015664;28;6796;-68
2023/01/18 23:56:51;;;;;;;;;;;;;;;;;;5014349;28;7392;-68
2023/01/18 23:59:17;;;;;;;;;;;;;;;;;;5015118;28;7176;-68
